Time;durP1;ratioP1;P1;durP2;ratioP2;P2;SDS_P1;SDS_P2;PMS_P1;PMS_P2;Temp;Humidity;BMP_temperature;BMP_pressure;BME280_temperature;BME280_humidity;BME280_pressure;Samples;Min_cycle;Max_cycle;Signal;HPM_P1;HPM_P2
2022/08/13 00:01:13;;;;;;;;;;;33.50;24.60;;;;;;5087526;28;20036;-58
2022/08/13 00:03:42;;;;;;;2.40;0.60;;;33.50;24.70;;;;;;5091554;28;20440;-58
2022/08/13 00:06:10;;;;;;;0.95;0.10;;;33.50;24.60;;;;;;5087584;28;20039;-60
2022/08/13 00:08:39;;;;;;;0.35;0.10;;;33.50;24.60;;;;;;5096958;28;20118;-59
2022/08/13 00:11:09;;;;;;;0.20;0.20;;;33.40;24.60;;;;;;5099925;28;20044;-59
2022/08/13 00:13:36;;;;;;;0.85;0.47;;;33.40;24.60;;;;;;5093483;28;20063;-59
2022/08/13 00:16:04;;;;;;;1.48;0.32;;;33.40;24.60;;;;;;5091599;28;20044;-58
2022/08/13 00:18:31;;;;;;;3.85;0.20;;;33.30;24.50;;;;;;5090857;28;20506;-60
2022/08/13 00:21:00;;;;;;;1.15;0.20;;;33.30;24.50;;;;;;5091240;28;20123;-58
2022/08/13 00:23:28;;;;;;;2.50;0.20;;;33.30;24.50;;;;;;5096319;28;20048;-57
2022/08/13 00:25:57;;;;;;;1.55;0.63;;;33.40;24.50;;;;;;5090481;28;20044;-57
2022/08/13 00:28:28;;;;;;;0.82;0.45;;;33.30;24.50;;;;;;5087897;28;20397;-56
2022/08/13 00:30:58;;;;;;;3.33;0.10;;;33.30;24.60;;;;;;5090816;28;20040;-58
2022/08/13 00:33:26;;;;;;;4.78;0.20;;;33.30;24.60;;;;;;5091346;28;20431;-57
2022/08/13 00:35:54;;;;;;;3.85;0.25;;;33.30;24.60;;;;;;5087403;28;20036;-55
2022/08/13 00:38:24;;;;;;;5.78;0.10;;;33.30;24.70;;;;;;5089850;28;20492;-57
2022/08/13 00:40:54;;;;;;;0.20;0.20;;;33.30;24.70;;;;;;5090290;28;20131;-58
2022/08/13 00:43:22;;;;;;;0.43;0.10;;;33.20;24.70;;;;;;5090252;28;20429;-57
2022/08/13 00:45:50;;;;;;;1.42;0.10;;;33.30;24.60;;;;;;5093000;28;20534;-58
2022/08/13 00:51:03;;;;;;;2.75;0.20;;;33.20;24.60;;;;;;5093365;28;20113;-56
2022/08/13 00:53:30;;;;;;;1.65;0.10;;;33.20;24.60;;;;;;5089460;28;20051;-57
2022/08/13 00:55:59;;;;;;;0.63;0.10;;;33.20;25.10;;;;;;5080033;28;20137;-58
2022/08/13 00:58:27;;;;;;;0.15;0.10;;;33.20;24.60;;;;;;5093537;28;20036;-55
2022/08/13 01:00:58;;;;;;;0.10;0.10;;;33.20;24.60;;;;;;5090168;28;20040;-58
2022/08/13 01:03:29;;;;;;;0.22;0.20;;;33.20;24.70;;;;;;5090419;28;20043;-58
2022/08/13 01:05:59;;;;;;;2.67;0.22;;;33.20;24.70;;;;;;5091610;28;20105;-56
2022/08/13 01:08:30;;;;;;;0.13;0.10;;;33.20;24.70;;;;;;5097122;28;20062;-57
2022/08/13 01:11:01;;;;;;;0.20;0.20;;;33.10;24.70;;;;;;5089661;28;20040;-58
2022/08/13 01:13:33;;;;;;;2.25;0.75;;;33.10;24.70;;;;;;5102143;28;20043;-58
2022/08/13 01:16:02;;;;;;;0.77;0.30;;;33.10;24.70;;;;;;5087961;28;20420;-55
2022/08/13 01:18:31;;;;;;;7.20;0.50;;;33.10;25.30;;;;;;5088379;28;20036;-57
2022/08/13 01:21:07;;;;;;;2.63;0.20;;;33.10;24.80;;;;;;5089426;28;20059;-58
2022/08/13 01:23:37;;;;;;;1.20;0.20;;;33.10;24.90;;;;;;5091164;28;20535;-58
2022/08/13 01:26:04;;;;;;;2.72;0.20;;;33.00;24.90;;;;;;5090388;28;20055;-57
2022/08/13 01:28:32;;;;;;;3.53;0.10;;;33.00;25.00;;;;;;5089394;28;20796;-59
2022/08/13 01:31:04;;;;;;;3.03;0.10;;;32.90;24.90;;;;;;5089528;28;20048;-57
2022/08/13 01:33:35;;;;;;;5.25;0.20;;;32.90;25.00;;;;;;5092813;28;20142;-57
2022/08/13 01:36:04;;;;;;;2.17;0.10;;;32.90;25.00;;;;;;5090040;28;20055;-56
2022/08/13 01:38:31;;;;;;;3.72;0.10;;;32.90;25.00;;;;;;5089033;28;20516;-58
2022/08/13 01:41:02;;;;;;;0.45;0.20;;;32.80;25.00;;;;;;5089799;28;20096;-57
2022/08/13 01:43:30;;;;;;;0.40;0.10;;;32.80;25.00;;;;;;5094843;28;20035;-58
2022/08/13 01:45:59;;;;;;;2.10;0.10;;;32.70;25.10;;;;;;5089075;28;20078;-56
2022/08/13 01:51:21;;;;;;;1.80;0.20;;;32.80;25.10;;;;;;5088736;28;20048;-57
2022/08/13 01:53:50;;;;;;;3.55;0.28;;;32.70;25.10;;;;;;5085201;28;20040;-57
2022/08/13 01:56:21;;;;;;;1.42;0.20;;;32.70;25.10;;;;;;5079461;28;20036;-57
2022/08/13 01:58:50;;;;;;;0.25;0.10;;;32.70;25.20;;;;;;5092442;28;20062;-56
2022/08/13 02:01:18;;;;;;;3.45;0.10;;;32.60;25.10;;;;;;5100030;28;20070;-57
2022/08/13 02:03:49;;;;;;;2.72;0.20;;;32.60;25.10;;;;;;5089180;28;20552;-58
2022/08/13 02:06:21;;;;;;;0.50;0.20;;;32.60;25.20;;;;;;5072557;28;20093;-57
2022/08/13 02:08:51;;;;;;;6.57;1.10;;;32.60;25.30;;;;;;5091696;28;20042;-57
2022/08/13 02:11:20;;;;;;;1.23;0.10;;;32.60;25.40;;;;;;5076009;28;20048;-58
2022/08/13 02:13:48;;;;;;;3.83;0.10;;;32.60;25.40;;;;;;5085382;28;20135;-56
2022/08/13 02:16:16;;;;;;;0.20;0.20;;;32.50;25.40;;;;;;5088505;28;20044;-56
2022/08/13 02:18:43;;;;;;;1.65;0.10;;;32.50;25.40;;;;;;5088243;28;20047;-57
2022/08/13 02:21:12;;;;;;;1.35;0.10;;;32.50;25.40;;;;;;5088539;28;20583;-57
2022/08/13 02:23:39;;;;;;;1.50;0.17;;;32.50;25.50;;;;;;5090577;28;20136;-58
2022/08/13 02:26:08;;;;;;;0.98;0.10;;;32.50;25.50;;;;;;5088498;28;20780;-56
2022/08/13 02:28:40;;;;;;;0.77;0.15;;;32.50;25.60;;;;;;5087092;28;20500;-55
2022/08/13 02:31:08;;;;;;;0.22;0.22;;;32.40;25.60;;;;;;5088004;28;20051;-58
2022/08/13 02:33:37;;;;;;;0.20;0.20;;;32.40;25.80;;;;;;5088830;28;20048;-60
2022/08/13 02:36:10;;;;;;;1.58;0.47;;;32.40;26.00;;;;;;5088650;28;20072;-58
2022/08/13 02:38:38;;;;;;;2.85;0.40;;;32.40;26.10;;;;;;5089526;28;20047;-60
2022/08/13 02:43:52;;;;;;;0.50;0.32;;;32.40;26.20;;;;;;5108973;28;20032;-60
2022/08/13 02:46:21;;;;;;;2.83;0.10;;;32.40;26.30;;;;;;5108848;28;20131;-58
2022/08/13 02:48:52;;;;;;;1.60;0.30;;;32.40;26.30;;;;;;5108614;28;20516;-61
2022/08/13 02:51:20;;;;;;;1.80;0.20;;;32.40;26.40;;;;;;5089187;28;20051;-60
2022/08/13 02:53:47;;;;;;;1.75;0.20;;;32.50;26.50;;;;;;5088123;28;20650;-59
2022/08/13 02:56:14;;;;;;;0.20;0.20;;;32.40;26.50;;;;;;5088376;28;20050;-61
2022/08/13 02:58:41;;;;;;;2.33;1.20;;;32.40;26.60;;;;;;5088006;28;20490;-58
2022/08/13 03:01:11;;;;;;;0.77;0.40;;;32.30;26.60;;;;;;5070013;28;20120;-61
2022/08/13 03:03:39;;;;;;;1.20;0.10;;;32.30;26.70;;;;;;5106614;28;20468;-60
2022/08/13 03:06:08;;;;;;;0.43;0.10;;;32.30;26.80;;;;;;5089914;28;20040;-59
2022/08/13 03:08:36;;;;;;;0.82;0.20;;;32.30;26.90;;;;;;5107684;28;20134;-60
2022/08/13 03:11:03;;;;;;;0.40;0.28;;;32.30;27.00;;;;;;5108031;28;20051;-61
2022/08/13 03:13:34;;;;;;;2.63;0.20;;;32.30;27.10;;;;;;5089838;28;20508;-59
2022/08/13 03:16:03;;;;;;;0.52;0.30;;;32.30;27.10;;;;;;5107966;28;20677;-61
2022/08/13 03:18:33;;;;;;;0.98;0.20;;;32.30;27.10;;;;;;5107686;28;20584;-61
2022/08/13 03:21:00;;;;;;;0.20;0.20;;;32.30;27.10;;;;;;5092696;28;20040;-61
2022/08/13 03:23:30;;;;;;;1.40;0.20;;;32.30;27.20;;;;;;5069596;28;20043;-60
2022/08/13 03:25:57;;;;;;;1.85;0.40;;;32.30;27.20;;;;;;5087806;28;20692;-60
2022/08/13 03:28:25;;;;;;;2.38;0.20;;;32.30;27.20;;;;;;5087933;28;20424;-61
2022/08/13 03:30:52;;;;;;;1.40;0.32;;;32.30;27.20;;;;;;5087942;28;20044;-59
2022/08/13 03:33:19;;;;;;;0.20;0.20;;;32.30;27.10;;;;;;5087969;28;20048;-61
2022/08/13 03:35:48;;;;;;;4.45;0.20;;;32.30;27.10;;;;;;5087651;28;20118;-60
2022/08/13 03:38:15;;;;;;;0.88;0.68;;;32.30;27.10;;;;;;5086459;28;20405;-59
2022/08/13 03:43:28;;;;;;;0.43;0.25;;;32.30;26.80;;;;;;5086585;28;20051;-60
2022/08/13 03:45:57;;;;;;;2.47;0.28;;;32.20;26.60;;;;;;5086479;28;20039;-59
2022/08/13 03:48:26;;;;;;;4.13;0.20;;;32.20;26.50;;;;;;5087086;28;20131;-61
2022/08/13 03:51:00;;;;;;;1.00;0.10;;;32.10;26.30;;;;;;5085232;28;20036;-58
2022/08/13 03:53:27;;;;;;;4.18;0.10;;;32.10;26.30;;;;;;5087551;28;20048;-58
2022/08/13 03:55:54;;;;;;;1.20;0.10;;;32.10;26.30;;;;;;5087599;28;20118;-57
2022/08/13 03:58:21;;;;;;;2.05;0.20;;;32.10;26.30;;;;;;5095975;28;20051;-56
2022/08/13 04:00:49;;;;;;;0.38;0.20;;;32.10;26.50;;;;;;5090159;28;20042;-61
2022/08/13 04:03:20;;;;;;;2.55;0.10;;;32.10;26.60;;;;;;5088010;28;20144;-60
2022/08/13 04:05:48;;;;;;;0.20;0.20;;;32.00;26.60;;;;;;5107660;28;20595;-60
2022/08/13 04:08:16;;;;;;;1.23;0.10;;;32.00;26.70;;;;;;5108458;28;20043;-59
2022/08/13 04:10:44;;;;;;;1.05;0.25;;;32.10;26.80;;;;;;5107942;28;20128;-59
2022/08/13 04:13:13;;;;;;;0.88;0.20;;;32.00;26.70;;;;;;5108424;28;20048;-59
2022/08/13 04:15:42;;;;;;;0.65;0.10;;;32.00;26.80;;;;;;5102373;28;20081;-60
2022/08/13 04:18:13;;;;;;;3.30;1.50;;;31.90;26.80;;;;;;5087522;28;20044;-58
2022/08/13 04:20:41;;;;;;;1.25;0.10;;;31.90;26.80;;;;;;5087451;28;20114;-56
2022/08/13 04:23:16;;;;;;;1.15;0.20;;;31.90;26.70;;;;;;5087729;28;20451;-64
2022/08/13 04:25:45;;;;;;;1.55;0.25;;;31.90;26.60;;;;;;5085367;28;20044;-63
2022/08/13 04:28:15;;;;;;;3.40;0.73;;;31.80;26.50;;;;;;5094254;28;20074;-64
2022/08/13 04:30:43;;;;;;;0.82;0.10;;;31.80;26.40;;;;;;5102082;28;20036;-64
2022/08/13 04:33:12;;;;;;;3.85;0.40;;;31.80;26.40;;;;;;5094463;28;20420;-64
2022/08/13 04:35:39;;;;;;;6.75;0.20;;;31.80;26.40;;;;;;5108053;28;20066;-65
2022/08/13 04:38:07;;;;;;;0.30;0.10;;;31.80;26.30;;;;;;5108080;28;20047;-64
2022/08/13 04:40:36;;;;;;;0.10;0.10;;;31.80;26.30;;;;;;5107494;28;20105;-64
2022/08/13 04:43:05;;;;;;;0.40;0.30;;;31.80;26.80;;;;;;5107795;28;20040;-65
2022/08/13 04:45:34;;;;;;;2.30;0.10;;;31.70;26.30;;;;;;5106605;28;20906;-64
2022/08/13 04:48:04;;;;;;;0.70;0.10;;;31.60;26.20;;;;;;5089560;28;20044;-64
2022/08/13 04:50:34;;;;;;;0.20;0.20;;;31.60;26.20;;;;;;5094456;28;20047;-64
2022/08/13 04:53:02;;;;;;;0.20;0.10;;;31.60;26.20;;;;;;5089647;28;20444;-64
2022/08/13 04:55:31;;;;;;;1.45;0.10;;;31.60;26.30;;;;;;5099140;28;20065;-65
2022/08/13 04:57:59;;;;;;;1.63;0.20;;;31.60;26.30;;;;;;5090412;28;20135;-65
2022/08/13 05:00:32;;;;;;;3.22;0.20;;;31.60;26.30;;;;;;5096290;28;20044;-65
2022/08/13 05:03:08;;;;;;;1.85;0.10;;;31.60;26.30;;;;;;5088939;28;20059;-65
2022/08/13 05:05:36;;;;;;;2.85;0.10;;;31.70;26.30;;;;;;5103925;28;20056;-65
2022/08/13 05:08:04;;;;;;;0.85;0.10;;;31.60;26.20;;;;;;5110985;28;20066;-65
2022/08/13 05:10:31;;;;;;;0.93;0.15;;;31.60;26.20;;;;;;5110913;28;20131;-65
2022/08/13 05:13:01;;;;;;;0.50;0.20;;;31.60;26.20;;;;;;5105864;28;20040;-65
2022/08/13 05:15:30;;;;;;;0.50;0.20;;;31.70;26.20;;;;;;5090332;28;20044;-65
2022/08/13 05:17:57;;;;;;;1.60;0.28;;;31.60;26.20;;;;;;5090884;28;20044;-64
2022/08/13 05:20:24;;;;;;;0.85;0.17;;;31.60;26.20;;;;;;5090704;28;20051;-64
2022/08/13 05:22:51;;;;;;;0.10;0.10;;;31.60;26.20;;;;;;5090215;28;20088;-64
2022/08/13 05:25:18;;;;;;;3.17;0.10;;;31.60;26.20;;;;;;5087525;28;20040;-65
2022/08/13 05:27:45;;;;;;;3.55;0.20;;;31.60;26.20;;;;;;5092594;28;20449;-65
2022/08/13 05:30:14;;;;;;;3.13;0.10;;;31.60;26.20;;;;;;5109506;28;20047;-65
2022/08/13 05:32:42;;;;;;;0.52;0.10;;;31.60;26.30;;;;;;5090050;28;20059;-65
2022/08/13 05:35:11;;;;;;;2.08;0.20;;;31.60;26.30;;;;;;5090122;28;20037;-65
2022/08/13 05:37:39;;;;;;;0.45;0.45;;;31.60;26.30;;;;;;5090227;28;20461;-65
2022/08/13 05:40:07;;;;;;;0.43;0.10;;;31.60;26.30;;;;;;5092040;28;20067;-65
2022/08/13 05:42:39;;;;;;;2.90;0.20;;;31.60;26.30;;;;;;5089252;28;20044;-65
2022/08/13 05:45:08;;;;;;;1.95;0.20;;;31.60;26.30;;;;;;5090006;28;20040;-65
2022/08/13 05:47:35;;;;;;;0.80;0.10;;;31.60;26.30;;;;;;5089809;28;20047;-65
2022/08/13 05:50:13;;;;;;;1.55;0.38;;;31.60;26.30;;;;;;5089785;28;20094;-65
2022/08/13 05:52:40;;;;;;;1.25;0.10;;;31.60;26.30;;;;;;5086747;28;20101;-65
2022/08/13 05:55:11;;;;;;;0.57;0.10;;;31.60;26.30;;;;;;5093684;28;20126;-65
2022/08/13 05:57:39;;;;;;;0.10;0.10;;;31.60;26.90;;;;;;5087344;28;20044;-65
2022/08/13 06:05:39;;;;;;;1.95;0.17;;;31.50;26.40;;;;;;5086487;28;20086;-65
2022/08/13 06:08:06;;;;;;;1.42;0.20;;;31.50;26.40;;;;;;5089821;28;20044;-65
2022/08/13 06:10:34;;;;;;;1.02;0.10;;;31.50;26.40;;;;;;5088865;28;20044;-64
2022/08/13 06:13:02;;;;;;;0.20;0.20;;;31.50;26.40;;;;;;5083381;28;20041;-65
2022/08/13 06:15:30;;;;;;;1.08;0.15;;;31.50;26.40;;;;;;5091869;28;20063;-65
2022/08/13 06:17:58;;;;;;;0.20;0.20;;;31.60;26.50;;;;;;5110022;28;20071;-64
2022/08/13 06:20:25;;;;;;;1.70;0.10;;;31.60;26.50;;;;;;5099437;28;20048;-64
2022/08/13 06:22:57;;;;;;;0.50;0.50;;;31.50;26.40;;;;;;5089877;28;20052;-65
2022/08/13 06:25:24;;;;;;;1.10;0.10;;;31.50;26.50;;;;;;5089124;28;20125;-64
2022/08/13 06:27:52;;;;;;;1.73;0.10;;;31.50;26.50;;;;;;5071340;28;20577;-64
2022/08/13 06:30:19;;;;;;;0.10;0.10;;;31.50;26.50;;;;;;5089335;28;20048;-64
2022/08/13 06:32:46;;;;;;;0.55;0.28;;;31.50;26.50;;;;;;5105205;28;20039;-65
2022/08/13 06:35:13;;;;;;;0.73;0.70;;;31.50;26.60;;;;;;5109709;28;20035;-65
2022/08/13 06:37:45;;;;;;;4.03;0.57;;;31.50;26.60;;;;;;5090813;28;20043;-64
2022/08/13 06:40:16;;;;;;;0.20;0.10;;;31.50;26.70;;;;;;5088424;28;20070;-72
2022/08/13 06:42:44;;;;;;;3.80;0.30;;;31.50;26.70;;;;;;5088676;28;20101;-61
2022/08/13 06:45:12;;;;;;;1.63;0.47;;;31.60;26.80;;;;;;5087888;28;20063;-61
2022/08/13 06:47:39;;;;;;;3.72;0.10;;;31.60;26.80;;;;;;5088729;28;20044;-60
2022/08/13 06:50:10;;;;;;;0.40;0.10;;;31.60;26.80;;;;;;5098556;28;20411;-67
2022/08/13 06:52:38;;;;;;;2.63;0.20;;;31.60;26.80;;;;;;5109239;28;20040;-77
2022/08/13 06:55:07;;;;;;;3.47;0.22;;;31.60;26.90;;;;;;5108869;28;20431;-68
2022/08/13 06:57:37;;;;;;;0.88;0.25;;;31.50;26.80;;;;;;5109364;28;20051;-69
2022/08/13 07:00:10;;;;;;;1.17;0.30;;;31.40;26.80;;;;;;5108778;28;20134;-62
2022/08/13 07:02:39;;;;;;;1.55;0.22;;;31.40;27.10;;;;;;5096398;28;20036;-63
2022/08/13 07:05:07;;;;;;;2.17;0.20;;;31.30;27.20;;;;;;5075427;28;20043;-69
2022/08/13 07:07:35;;;;;;;4.70;0.10;;;31.20;27.20;;;;;;5089265;28;20076;-61
2022/08/13 07:10:03;;;;;;;4.35;0.20;;;31.10;27.50;;;;;;5092790;28;20054;-61
2022/08/13 07:12:33;;;;;;;3.63;0.10;;;31.10;27.90;;;;;;5091008;28;20050;-55
2022/08/13 07:15:01;;;;;;;0.95;0.10;;;31.10;28.00;;;;;;5093401;28;20044;-62
2022/08/13 07:17:29;;;;;;;0.60;0.17;;;31.20;28.20;;;;;;5108680;28;20047;-61
2022/08/13 07:19:56;;;;;;;1.92;0.65;;;31.20;28.40;;;;;;5100993;28;20040;-60
2022/08/13 07:22:23;;;;;;;0.20;0.15;;;31.20;28.50;;;;;;5069947;28;20393;-61
2022/08/13 07:24:50;;;;;;;9.85;0.10;;;31.30;28.90;;;;;;5095961;28;20063;-56
2022/08/13 07:27:18;;;;;;;2.53;0.20;;;31.30;29.00;;;;;;5087925;28;20044;-56
2022/08/13 07:29:49;;;;;;;6.60;0.50;;;31.40;29.10;;;;;;5105342;28;20728;-57
2022/08/13 07:32:17;;;;;;;4.47;0.10;;;31.40;29.10;;;;;;5107225;28;20043;-57
2022/08/13 07:34:45;;;;;;;4.57;1.02;;;31.40;29.10;;;;;;5106793;28;20040;-57
2022/08/13 07:37:20;;;;;;;0.20;0.20;;;31.40;29.00;;;;;;5106979;28;20040;-56
2022/08/13 07:39:47;;;;;;;0.90;0.20;;;31.50;29.00;;;;;;5106958;28;20032;-57
2022/08/13 07:42:16;;;;;;;2.15;0.25;;;31.50;29.00;;;;;;5108709;28;20074;-58
2022/08/13 07:44:43;;;;;;;0.35;0.25;;;31.60;29.00;;;;;;5108158;28;20047;-55
2022/08/13 07:47:14;;;;;;;0.75;0.20;;;31.60;28.90;;;;;;5108199;28;20043;-57
2022/08/13 07:49:44;;;;;;;0.98;0.17;;;31.60;28.90;;;;;;5104057;28;20029;-57
2022/08/13 07:52:12;;;;;;;1.02;0.25;;;31.60;28.80;;;;;;5090958;28;20039;-57
2022/08/13 07:54:40;;;;;;;1.60;1.15;;;31.60;28.80;;;;;;5088751;28;20068;-57
2022/08/13 07:57:08;;;;;;;3.17;1.45;;;31.70;28.80;;;;;;5108340;28;20039;-54
2022/08/13 07:59:37;;;;;;;3.50;0.77;;;31.70;28.80;;;;;;5108358;28;20592;-58
2022/08/13 08:02:05;;;;;;;2.75;0.55;;;31.70;28.70;;;;;;5102174;28;20051;-58
2022/08/13 08:04:34;;;;;;;1.23;1.10;;;31.70;28.70;;;;;;5087912;28;20063;-59
2022/08/13 08:07:04;;;;;;;3.60;0.70;;;31.70;28.70;;;;;;5087307;28;20055;-56
2022/08/13 08:09:32;;;;;;;2.22;0.40;;;31.80;28.70;;;;;;5087670;28;20036;-55
2022/08/13 08:14:47;;;;;;;2.40;0.95;;;31.80;28.60;;;;;;5104077;28;20051;-57
2022/08/13 08:17:14;;;;;;;3.83;0.63;;;31.80;28.50;;;;;;5109165;28;20043;-57
2022/08/13 08:19:42;;;;;;;0.70;0.32;;;31.80;28.50;;;;;;5087984;28;20150;-57
2022/08/13 08:22:12;;;;;;;0.90;0.73;;;31.90;28.50;;;;;;5108774;28;20036;-56
2022/08/13 08:24:39;;;;;;;0.77;0.20;;;31.90;28.50;;;;;;5108789;28;20129;-57
2022/08/13 08:27:09;;;;;;;4.22;0.38;;;31.90;28.50;;;;;;5109243;28;20043;-58
2022/08/13 08:29:38;;;;;;;0.40;0.20;;;31.90;28.50;;;;;;5112386;28;20039;-58
2022/08/13 08:32:08;;;;;;;1.90;1.50;;;31.90;28.50;;;;;;5094399;28;20067;-55
2022/08/13 08:34:35;;;;;;;0.43;0.40;;;31.90;28.40;;;;;;5113007;28;20043;-58
2022/08/13 08:37:03;;;;;;;1.25;0.10;;;32.00;28.40;;;;;;5111921;28;20078;-55
2022/08/13 08:42:38;;;;;;;2.15;0.32;;;31.90;28.40;;;;;;5104663;28;20050;-63
2022/08/13 08:45:13;;;;;;;0.55;0.20;;;31.90;28.30;;;;;;5091696;28;20047;-54
2022/08/13 08:47:41;;;;;;;0.55;0.20;;;32.00;28.40;;;;;;5092816;28;20139;-54
2022/08/13 08:50:10;;;;;;;0.40;0.20;;;32.00;28.40;;;;;;5101864;28;20127;-54
2022/08/13 08:55:26;;;;;;;1.55;0.10;;;32.00;28.30;;;;;;5106603;28;20404;-57
2022/08/13 08:57:53;;;;;;;0.10;0.10;;;32.00;28.30;;;;;;5111684;28;20036;-54
2022/08/13 09:00:23;;;;;;;1.65;0.20;;;32.00;28.30;;;;;;5110916;28;20039;-56
2022/08/13 09:02:50;;;;;;;2.05;0.10;;;32.00;28.20;;;;;;5108322;28;20130;-55
2022/08/13 09:05:19;;;;;;;0.20;0.13;;;32.00;28.20;;;;;;5110940;28;20046;-54
2022/08/13 09:07:47;;;;;;;0.85;0.20;;;32.10;28.30;;;;;;5111410;28;20054;-54
2022/08/13 09:10:17;;;;;;;0.20;0.10;;;32.10;28.30;;;;;;5110957;28;20051;-57
2022/08/13 09:12:48;;;;;;;1.60;0.17;;;32.10;28.20;;;;;;5111432;28;20050;-56
2022/08/13 09:15:21;;;;;;;0.30;0.30;;;32.10;28.20;;;;;;5111156;28;20806;-55
2022/08/13 09:17:49;;;;;;;0.32;0.10;;;32.10;28.30;;;;;;5111240;28;20036;-56
2022/08/13 09:20:18;;;;;;;1.00;0.22;;;32.10;28.30;;;;;;5101547;28;20404;-56
2022/08/13 09:22:46;;;;;;;0.20;0.20;;;32.10;28.20;;;;;;5100663;28;20050;-56
2022/08/13 09:25:15;;;;;;;0.40;0.10;;;32.20;28.30;;;;;;5110841;28;20415;-57
2022/08/13 09:27:45;;;;;;;0.57;0.10;;;32.10;28.20;;;;;;5111104;28;20501;-57
2022/08/13 09:30:13;;;;;;;2.00;0.15;;;32.10;28.10;;;;;;5100359;28;20127;-53
2022/08/13 09:32:41;;;;;;;0.85;0.10;;;32.10;28.10;;;;;;5088879;28;20055;-54
2022/08/13 09:35:09;;;;;;;0.10;0.10;;;32.10;28.10;;;;;;5110505;28;20043;-57
2022/08/13 09:37:36;;;;;;;0.10;0.10;;;32.20;28.20;;;;;;5110755;28;20134;-57
2022/08/13 09:40:06;;;;;;;1.50;0.47;;;32.20;28.10;;;;;;5110841;28;20134;-58
2022/08/13 09:42:37;;;;;;;0.10;0.10;;;32.20;28.10;;;;;;5110917;28;20126;-58
2022/08/13 09:45:08;;;;;;;1.45;0.10;;;32.20;28.20;;;;;;5110782;28;20127;-58
2022/08/13 09:47:35;;;;;;;1.33;0.10;;;32.20;28.10;;;;;;5110658;28;20097;-55
2022/08/13 09:50:03;;;;;;;1.05;0.10;;;32.20;28.10;;;;;;5101361;28;20121;-57
2022/08/13 09:52:30;;;;;;;7.78;1.55;;;32.20;28.10;;;;;;5090290;28;20153;-57
2022/08/13 09:54:57;;;;;;;0.22;0.10;;;32.20;28.00;;;;;;5090185;28;20428;-57
2022/08/13 09:57:25;;;;;;;0.57;0.10;;;32.30;28.10;;;;;;5090082;28;20040;-58
2022/08/13 09:59:53;;;;;;;0.10;0.10;;;32.30;28.00;;;;;;5109355;28;20096;-56
2022/08/13 10:02:22;;;;;;;0.45;0.10;;;32.30;28.10;;;;;;5102203;28;20051;-56
2022/08/13 10:04:52;;;;;;;2.22;0.00;;;32.30;28.10;;;;;;5089515;28;20040;-54
2022/08/13 10:07:19;;;;;;;0.00;0.00;;;32.30;28.10;;;;;;5089839;28;20124;-57
2022/08/13 10:09:47;;;;;;;1.35;0.10;;;32.30;28.10;;;;;;5089758;28;20044;-57
2022/08/13 10:12:14;;;;;;;0.68;0.10;;;32.30;28.10;;;;;;5071741;28;20062;-54
2022/08/13 10:14:42;;;;;;;0.10;0.10;;;32.30;28.10;;;;;;5071522;28;20063;-54
2022/08/13 10:17:09;;;;;;;1.75;0.10;;;32.30;28.10;;;;;;5089336;28;20127;-55
2022/08/13 10:19:38;;;;;;;0.10;0.10;;;32.40;28.10;;;;;;5089115;28;20557;-55
2022/08/13 10:22:05;;;;;;;0.15;0.10;;;32.40;28.10;;;;;;5071646;28;20502;-56
2022/08/13 10:24:32;;;;;;;3.60;0.13;;;32.40;28.00;;;;;;5089226;28;20640;-53
2022/08/13 10:27:00;;;;;;;0.17;0.10;;;32.40;28.00;;;;;;5089172;28;20679;-56
2022/08/13 10:29:27;;;;;;;0.45;0.00;;;32.40;28.00;;;;;;5071234;28;20051;-58
2022/08/13 10:31:54;;;;;;;1.75;0.10;;;32.40;28.50;;;;;;5088888;28;20043;-58
2022/08/13 10:34:22;;;;;;;0.28;0.10;;;32.40;28.00;;;;;;5095493;28;20043;-57
2022/08/13 10:36:50;;;;;;;0.40;0.40;;;32.40;28.00;;;;;;5109438;28;20039;-58
2022/08/13 10:39:17;;;;;;;2.40;0.10;;;32.40;27.90;;;;;;5091740;28;20116;-57
2022/08/13 10:41:44;;;;;;;1.25;0.05;;;32.50;27.90;;;;;;5091193;28;20043;-56
2022/08/13 10:44:13;;;;;;;0.10;0.10;;;32.40;27.90;;;;;;5109181;28;20044;-57
2022/08/13 10:46:45;;;;;;;0.40;0.10;;;32.40;27.80;;;;;;5108590;28;20093;-54
2022/08/13 10:49:13;;;;;;;0.50;0.00;;;32.40;27.80;;;;;;5106676;28;20048;-53
2022/08/13 10:51:41;;;;;;;0.35;0.10;;;32.40;27.80;;;;;;5070329;28;20044;-57
2022/08/13 10:54:10;;;;;;;0.10;0.10;;;32.40;27.80;;;;;;5075321;28;20591;-57
2022/08/13 10:56:37;;;;;;;0.20;0.20;;;32.50;27.80;;;;;;5108779;28;20047;-57
2022/08/13 10:59:06;;;;;;;0.08;0.00;;;32.50;27.80;;;;;;5108567;28;20039;-54
2022/08/13 11:01:33;;;;;;;1.77;0.10;;;32.50;27.70;;;;;;5106956;28;20035;-56
2022/08/13 11:04:05;;;;;;;0.10;0.10;;;32.50;27.70;;;;;;5093185;28;20046;-57
2022/08/13 11:06:32;;;;;;;1.50;0.00;;;32.60;27.80;;;;;;5082026;28;20568;-57
2022/08/13 11:09:00;;;;;;;0.10;0.10;;;32.60;27.80;;;;;;5088144;28;20068;-53
2022/08/13 11:11:29;;;;;;;0.10;0.10;;;32.60;27.80;;;;;;5059537;28;20056;-60
2022/08/13 11:13:56;;;;;;;0.10;0.10;;;32.50;27.80;;;;;;5080239;28;20230;-56
2022/08/13 11:19:14;;;;;;;0.65;0.10;;;32.60;27.90;;;;;;5081757;28;20048;-57
2022/08/13 11:21:43;;;;;;;0.20;0.10;;;32.60;27.80;;;;;;5073446;28;20036;-58
2022/08/13 11:24:11;;;;;;;0.10;0.10;;;32.60;27.90;;;;;;5086701;28;20036;-56
2022/08/13 11:26:40;;;;;;;1.30;0.10;;;32.60;27.90;;;;;;5069125;28;20574;-58
2022/08/13 11:29:07;;;;;;;0.22;0.10;;;32.70;27.90;;;;;;5047884;28;20049;-58
2022/08/13 11:31:34;;;;;;;0.10;0.10;;;32.70;28.00;;;;;;5077081;28;20543;-57
2022/08/13 11:34:01;;;;;;;0.20;0.10;;;32.70;28.40;;;;;;5087468;28;20040;-56
2022/08/13 11:36:28;;;;;;;0.10;0.10;;;32.70;27.70;;;;;;5087613;28;20072;-56
2022/08/13 11:38:56;;;;;;;0.10;0.10;;;32.70;27.80;;;;;;5086972;28;20480;-58
2022/08/13 11:41:23;;;;;;;0.95;0.10;;;32.70;27.70;;;;;;5082261;28;20043;-58
2022/08/13 11:43:52;;;;;;;0.32;0.10;;;32.80;27.70;;;;;;5068347;28;20048;-56
2022/08/13 11:46:20;;;;;;;0.10;0.10;;;32.80;27.50;;;;;;5081602;28;20071;-58
2022/08/13 11:48:47;;;;;;;0.77;0.10;;;32.80;27.60;;;;;;5087386;28;20110;-57
2022/08/13 11:51:14;;;;;;;0.10;0.00;;;32.80;27.70;;;;;;5079360;28;20055;-58
2022/08/13 11:53:41;;;;;;;0.43;0.10;;;32.80;27.50;;;;;;5068303;28;20102;-56
2022/08/13 11:56:08;;;;;;;0.10;0.10;;;32.80;27.50;;;;;;5072883;28;20148;-55
2022/08/13 11:58:36;;;;;;;0.38;0.38;;;32.90;27.60;;;;;;5067725;28;20087;-57
2022/08/13 12:01:06;;;;;;;0.10;0.00;;;32.90;27.50;;;;;;5050028;28;20417;-56
2022/08/13 12:03:35;;;;;;;0.40;0.00;;;32.90;27.60;;;;;;5071755;28;20051;-57
2022/08/13 12:06:02;;;;;;;1.55;0.10;;;32.90;27.40;;;;;;5068106;28;20102;-57
2022/08/13 12:08:30;;;;;;;0.05;0.03;;;32.90;27.50;;;;;;5087032;28;20048;-57
2022/08/13 12:10:58;;;;;;;0.00;0.00;;;33.00;27.50;;;;;;5084130;28;20044;-53
2022/08/13 12:13:25;;;;;;;0.40;0.05;;;33.00;27.50;;;;;;5086779;28;20520;-58
2022/08/13 12:15:52;;;;;;;0.30;0.10;;;33.00;27.50;;;;;;5073737;28;20558;-56
2022/08/13 12:18:20;;;;;;;0.05;0.05;;;33.00;27.50;;;;;;5069229;28;20090;-58
2022/08/13 12:20:48;;;;;;;0.00;0.00;;;33.00;27.40;;;;;;5072503;28;20072;-58
2022/08/13 12:23:15;;;;;;;0.10;0.10;;;33.10;27.50;;;;;;5068841;28;20045;-53
2022/08/13 12:25:42;;;;;;;0.40;0.38;;;33.10;27.40;;;;;;5068752;28;20041;-54
2022/08/13 12:28:15;;;;;;;1.38;0.00;;;33.10;27.40;;;;;;5051371;28;20087;-55
2022/08/13 12:30:44;;;;;;;0.00;0.00;;;33.10;27.40;;;;;;5060996;28;20045;-55
2022/08/13 12:33:11;;;;;;;0.10;0.10;;;33.10;27.30;;;;;;5086866;28;20046;-58
2022/08/13 12:35:39;;;;;;;0.10;0.10;;;33.20;27.40;;;;;;5076340;28;20048;-58
2022/08/13 12:38:08;;;;;;;0.15;0.10;;;33.20;27.30;;;;;;5086877;28;20127;-61
2022/08/13 12:40:36;;;;;;;0.05;0.00;;;33.20;27.40;;;;;;5086867;28;20079;-53
2022/08/13 12:43:04;;;;;;;1.33;0.08;;;33.30;27.40;;;;;;5086300;28;20039;-56
2022/08/13 12:45:32;;;;;;;0.00;0.00;;;33.30;27.30;;;;;;5086859;28;20193;-54
2022/08/13 12:48:04;;;;;;;0.70;0.10;;;33.30;27.30;;;;;;5086640;28;20127;-57
2022/08/13 12:50:31;;;;;;;0.30;0.10;;;33.30;27.20;;;;;;5060831;28;20049;-55
2022/08/13 12:53:00;;;;;;;0.10;0.10;;;33.30;27.20;;;;;;5072195;28;20048;-57
2022/08/13 12:55:27;;;;;;;0.05;0.05;;;33.40;27.40;;;;;;5080525;28;20121;-56
2022/08/13 12:57:55;;;;;;;0.03;0.03;;;33.40;27.20;;;;;;5086095;28;20043;-58
2022/08/13 13:00:22;;;;;;;0.05;0.05;;;33.40;27.60;;;;;;5079271;28;20040;-58
2022/08/13 13:02:49;;;;;;;0.10;0.08;;;33.40;27.10;;;;;;5072474;28;20097;-57
2022/08/13 13:05:16;;;;;;;2.08;0.10;;;33.50;27.10;;;;;;5090052;28;20060;-56
2022/08/13 13:07:44;;;;;;;0.00;0.00;;;33.50;27.10;;;;;;5068359;28;20051;-57
2022/08/13 13:10:12;;;;;;;0.10;0.10;;;33.50;27.10;;;;;;5086576;28;20074;-58
2022/08/13 13:12:39;;;;;;;0.03;0.03;;;33.50;27.00;;;;;;5085264;28;20036;-56
2022/08/13 13:15:08;;;;;;;0.63;0.10;;;33.60;27.10;;;;;;5070684;28;20043;-54
2022/08/13 13:17:38;;;;;;;0.38;0.08;;;33.60;27.00;;;;;;5072542;28;20141;-56
2022/08/13 13:20:06;;;;;;;0.28;0.10;;;33.60;27.00;;;;;;5084002;28;20055;-53
2022/08/13 13:22:34;;;;;;;0.40;0.10;;;33.60;27.00;;;;;;5071226;28;20075;-58